This is the latest recevied weather packets stored in our database for station/object PY2UEP-1. If no packets are shown the sender has not sent any weather packets the latest 1 day(s).
| Time | Temp. | Humidity | Pressure | Rain* | Wind** | Luminosity | Snow |
|---|---|---|---|---|---|---|---|
| 1778012448 | 26.11° C | 66% | 1021 hPa | 0 mm | 0.45 m/s, 214° | - | - |
| 1778012148 | 26.11° C | 64% | 1020.9 hPa | 0 mm | 0.45 m/s, 220° | - | - |
| 1778011848 | 26.11° C | 64% | 1020.9 hPa | 0 mm | 0.45 m/s, 216° | - | - |
| 1778011548 | 26.67° C | 62% | 1021 hPa | 0 mm | 0.45 m/s, 200° | - | - |
| 1778011248 | 26.67° C | 60% | 1021 hPa | 0 mm | 0.45 m/s, 174° | - | - |
| 1778010948 | 26.67° C | 60% | 1020.9 hPa | 0 mm | 0.45 m/s, 182° | - | - |
| 1778010648 | 26.67° C | 59% | 1020.8 hPa | 0 mm | 0.45 m/s, 180° | - | - |
| 1778010348 | 26.67° C | 60% | 1020.7 hPa | 0 mm | 0.45 m/s, 206° | - | - |
| 1778010048 | 26.67° C | 60% | 1020.9 hPa | 0 mm | 0.45 m/s, 208° | - | - |
| 1778009748 | 26.67° C | 61% | 1020.8 hPa | 0 mm | 0.45 m/s, 216° | - | - |
| 1778009448 | 26.67° C | 59% | 1020.8 hPa | 0 mm | 0.45 m/s, 202° | - | - |
| 1778009148 | 26.67° C | 60% | 1020.8 hPa | 0 mm | 0.45 m/s, 215° | - | - |
| 1778008848 | 27.22° C | 59% | 1020.9 hPa | 0 mm | 0.89 m/s, 219° | - | - |
| 1778008548 | 27.22° C | 58% | 1020.8 hPa | 0 mm | 0.89 m/s, 222° | - | - |
| 1778008249 | 27.78° C | 57% | 1020.8 hPa | 0 mm | 0.45 m/s, 207° | - | - |
| 1778007948 | 28.33° C | 54% | 1020.8 hPa | 0 mm | 0.45 m/s, 222° | - | - |
| 1778007648 | 28.89° C | 50% | 1020.8 hPa | 0 mm | 0.89 m/s, 211° | - | - |
| 1778007348 | 30° C | 47% | 1020.8 hPa | 0 mm | 0.45 m/s, 145° | - | - |
| 1778007048 | 30.56° C | 44% | 1020.8 hPa | 0 mm | 0.45 m/s, 84° | - | - |
| 1778006748 | 30° C | 44% | 1020.8 hPa | 0 mm | 0.45 m/s, 74° | - | - |
| 1778006448 | 30° C | 44% | 1021 hPa | 0 mm | 0.89 m/s, 69° | - | - |
| 1778006149 | 30° C | 43% | 1020.8 hPa | 0 mm | 0.89 m/s, 117° | - | - |
| 1778005848 | 30° C | 44% | 1020.8 hPa | 0 mm | 0.89 m/s, 70° | - | - |
| 1778005548 | 30° C | 45% | 1020.8 hPa | 0 mm | 0.89 m/s, 80° | - | - |
| 1778005248 | 29.44° C | 46% | 1021 hPa | 0 mm | 1.34 m/s, 88° | - | - |
* Rain since midnight (hover to see other rain measurements)
** Current wind speed in m/s (hover to see current wind gust speed)